Hensel, North Dakota
Current Conditions -  °F | °C
As of 3:55 PM on Wednesday 26 Nov 2014 (Local Time) from K2C8 Reporting Station
Haze Haze  
Wind Chill: -17°   Ceiling: 1200
Heat Index:   Visibility: 3mi
Dew Point: -6°   Wind: 10mph
Humidity: 78%   Direction: 350°N
Pressure: 30.51"   Gusts: NA
Location:  48.69°N, 97.67°W
Report Text: K2C8 262155Z AUTO 35009KT 3SM HZ BKN012 M18/M21 A3051 RMK AO2
Loading
Personal Weather Stations






























Interactive Weather Map New forecast layout! Learn more

10-Day Weather Forecast

Advertisements
Track Severe Weather on mobile